^^
Mint Hill Weather Station Historical Data
 
Daily Summary for November 27, 2014 Units:  English    Metric   Both
« Previous Day
Next Day »
Daily Weekly Monthly Yearly Custom
  Current: High: Low: Average:
Temperature: 41.8 °F 42.2 °F 34.3 °F 38.4 °F
Dew Point: 37.0 °F 38.1 °F 32.3 °F 35.7 °F
Humidity: 83% 96% 77% 90%
Wind Speed: 2.4mph 5.9mph 0.0mph 0.8mph
Wind Gust: 6.9mph 12.7mph - -
WindWSW - - WSW
Pressure: 30.01 in 30.01 in 29.95 in -
Precipitation: 0.00 in      
Historical Graphs
 
 
Tabular Data for November 27, 2014
Time Temperature Dew Point Pressure Wind Wind Speed Wind Gust Humidity Rainfall Rate (Hourly) solar Conditions
00:00 38.3 °F 37.0 °F 30.01 in Calm     95% 0.00 in 0.0 W/m2 RA
00:05 38.1 °F 36.8 °F 30.00 in Calm     95% 0.00 in 0.0 W/m2 RA
00:10 38.0 °F 36.7 °F 30.00 in Calm     95% 0.00 in 0.0 W/m2 CLR
00:15 37.9 °F 36.6 °F 30.00 in Calm     95% 0.00 in 0.0 W/m2 CLR
00:20 37.9 °F 36.6 °F 30.00 in Calm     95% 0.00 in 0.0 W/m2 CLR
00:25 37.7 °F 36.4 °F 29.99 in Calm     95% 0.00 in 0.0 W/m2 CLR
00:30 37.5 °F 35.9 °F 30.00 in Calm     94% 0.00 in 0.0 W/m2 CLR
00:35 37.3 °F 35.7 °F 30.00 in Calm     94% 0.00 in 0.0 W/m2 CLR
00:40 37.1 °F 35.5 °F 30.00 in Calm     94% 0.00 in 0.0 W/m2 CLR
00:45 36.9 °F 35.3 °F 30.00 in Calm     94% 0.00 in 0.0 W/m2 CLR
00:50 36.7 °F 35.4 °F 30.01 in West 0.9 mph 2.3 mph 95% 0.00 in 0.0 W/m2 CLR
00:55 36.7 °F 35.4 °F 30.00 in South 1.5 mph 3.5 mph 95% 0.00 in 0.0 W/m2 CLR
01:00 36.8 °F 35.5 °F 30.00 in SSW 0.7 mph 2.3 mph 95% 0.00 in 0.0 W/m2 CLR
01:05 37.0 °F 35.7 °F 30.00 in South 1.0 mph 2.3 mph 95% 0.00 in 0.0 W/m2 CLR
01:10 37.1 °F 35.8 °F 30.00 in SW 0.3 mph 1.1 mph 95% 0.00 in 0.0 W/m2 CLR
01:15 37.3 °F 36.3 °F 30.00 in SW 1.1 mph 2.3 mph 96% 0.00 in 0.0 W/m2 CLR
01:20 37.5 °F 36.5 °F 30.00 in WNW 0.7 mph 3.5 mph 96% 0.00 in 0.0 W/m2 CLR
01:25 37.8 °F 36.8 °F 30.00 in SSW 2.1 mph 3.5 mph 96% 0.00 in 0.0 W/m2 CLR
01:30 37.9 °F 36.9 °F 30.00 in WSW 2.2 mph 5.8 mph 96% 0.00 in 0.0 W/m2 CLR
01:35 38.1 °F 37.1 °F 30.01 in NW 1.7 mph 3.5 mph 96% 0.00 in 0.0 W/m2 CLR
01:40 38.3 °F 37.3 °F 30.01 in SW 2.9 mph 8.0 mph 96% 0.00 in 0.0 W/m2 CLR
01:45 38.6 °F 37.6 °F 30.00 in SW 3.2 mph 4.0 mph 96% 0.00 in 0.0 W/m2 CLR
01:50 38.9 °F 37.6 °F 30.01 in NNE 1.6 mph 5.8 mph 95% 0.00 in 0.0 W/m2 CLR
01:55 39.5 °F 37.4 °F 30.00 in WSW 3.0 mph 4.6 mph 92% 0.00 in 0.0 W/m2 CLR
02:01 40.1 °F 37.1 °F 30.00 in WSW 2.9 mph 5.8 mph 89% 0.00 in 0.0 W/m2 CLR
02:05 40.7 °F 36.8 °F 30.00 in SW 1.9 mph 3.5 mph 86% 0.00 in 0.0 W/m2 OVC
02:11 41.1 °F 36.6 °F 30.00 in West 1.9 mph 5.8 mph 84% 0.00 in 0.0 W/m2 OVC
02:16 41.4 °F 36.3 °F 30.00 in West 2.7 mph 5.8 mph 82% 0.00 in 0.0 W/m2 OVC
02:21 41.6 °F 36.2 °F 29.99 in WSW 1.3 mph 3.0 mph 81% 0.00 in 0.0 W/m2 OVC
02:26 41.6 °F 36.2 °F 29.99 in West 2.0 mph 3.5 mph 81% 0.00 in 0.0 W/m2 OVC
02:31 41.7 °F 36.0 °F 29.99 in WNW 2.0 mph 4.6 mph 80% 0.00 in 0.0 W/m2 OVC
02:36 41.8 °F 36.4 °F 29.99 in WNW 0.2 mph 1.1 mph 81% 0.00 in 0.0 W/m2 OVC
02:41 41.8 °F 36.1 °F 29.99 in West 1.3 mph 3.5 mph 80% 0.00 in 0.0 W/m2 OVC
02:46 41.8 °F 35.4 °F 29.99 in WNW 2.5 mph 4.6 mph 78% 0.00 in 0.0 W/m2 OVC
02:51 41.9 °F 35.2 °F 29.99 in WSW 2.7 mph 4.6 mph 77% 0.00 in 0.0 W/m2 OVC
02:56 42.1 °F 36.4 °F 29.99 in West 1.9 mph 4.6 mph 80% 0.00 in 0.0 W/m2 OVC
03:01 42.2 °F 37.1 °F 29.99 in West 1.1 mph 2.3 mph 82% 0.00 in 0.0 W/m2 OVC
03:06 42.1 °F 37.6 °F 29.99 in Calm     84% 0.00 in 0.0 W/m2 OVC
03:11 41.9 °F 37.7 °F 29.99 in Calm   2.3 mph 85% 0.00 in 0.0 W/m2 OVC
03:16 41.7 °F 37.8 °F 29.99 in Calm     86% 0.00 in 0.0 W/m2 OVC
03:21 41.5 °F 37.9 °F 29.99 in Calm     87% 0.00 in 0.0 W/m2 OVC
03:26 41.4 °F 38.1 °F 29.98 in Calm     88% 0.00 in 0.0 W/m2 OVC
03:31 41.3 °F 37.7 °F 29.97 in Calm     87% 0.00 in 0.0 W/m2 OVC
03:36 41.0 °F 37.4 °F 29.97 in Calm     87% 0.00 in 0.0 W/m2 OVC
03:41 40.8 °F 37.2 °F 29.97 in Calm     87% 0.00 in 0.0 W/m2 OVC
03:46 40.5 °F 37.2 °F 29.97 in Calm     88% 0.00 in 0.0 W/m2 OVC
03:51 40.3 °F 37.0 °F 29.97 in Calm     88% 0.00 in 0.0 W/m2 OVC
03:56 39.9 °F 36.9 °F 29.96 in Calm     89% 0.00 in 0.0 W/m2 OVC
04:01 39.8 °F 36.8 °F 29.97 in Calm     89% 0.00 in 0.0 W/m2 OVC
04:06 39.5 °F 36.5 °F 29.97 in Calm     89% 0.00 in 0.0 W/m2 BKN
04:11 39.2 °F 36.5 °F 29.96 in Calm     90% 0.00 in 0.0 W/m2 BKN
04:16 39.1 °F 36.7 °F 29.96 in Calm     91% 0.00 in 0.0 W/m2 BKN
04:21 39.1 °F 36.7 °F 29.96 in Calm     91% 0.00 in 0.0 W/m2 BKN
04:26 39.1 °F 36.7 °F 29.96 in Calm     91% 0.00 in 0.0 W/m2 BKN
04:31 39.0 °F 36.6 °F 29.96 in Calm     91% 0.00 in 0.0 W/m2 BKN
04:36 38.9 °F 36.5 °F 29.96 in Calm     91% 0.00 in 0.0 W/m2 BKN
04:41 38.8 °F 36.4 °F 29.95 in Calm     91% 0.00 in 0.0 W/m2 BKN
04:46 38.8 °F 36.7 °F 29.95 in Calm     92% 0.00 in 0.0 W/m2 BKN
04:51 38.7 °F 36.6 °F 29.95 in Calm     92% 0.00 in 0.0 W/m2 BKN
04:56 38.7 °F 36.6 °F 29.95 in Calm     92% 0.00 in 0.0 W/m2 BKN
05:01 38.6 °F 36.5 °F 29.95 in Calm     92% 0.00 in 0.0 W/m2 OVC
05:06 38.6 °F 36.5 °F 29.95 in Calm     92% 0.00 in 0.0 W/m2 OVC
05:11 38.6 °F 36.5 °F 29.95 in Calm     92% 0.00 in 0.0 W/m2 OVC
05:16 38.4 °F 36.3 °F 29.96 in Calm     92% 0.00 in 0.0 W/m2 OVC
05:21 38.3 °F 36.2 °F 29.96 in Calm     92% 0.00 in 0.0 W/m2 OVC
05:26 38.3 °F 36.2 °F 29.95 in Calm     92% 0.00 in 0.0 W/m2 OVC
05:31 38.2 °F 36.1 °F 29.96 in Calm     92% 0.00 in 0.0 W/m2 OVC
05:36 38.0 °F 35.9 °F 29.96 in Calm     92% 0.00 in 0.0 W/m2 OVC
05:41 37.9 °F 35.5 °F 29.96 in Calm     91% 0.00 in 0.0 W/m2 OVC
05:46 37.8 °F 35.4 °F 29.96 in Calm     91% 0.00 in 0.0 W/m2 OVC
05:51 37.7 °F 35.6 °F 29.96 in Calm     92% 0.00 in 0.0 W/m2 OVC
05:56 37.6 °F 35.2 °F 29.96 in Calm     91% 0.00 in 0.0 W/m2 OVC
06:01 37.4 °F 35.0 °F 29.96 in Calm     91% 0.00 in 0.0 W/m2 BKN
06:06 37.3 °F 34.9 °F 29.96 in Calm     91% 0.00 in 0.0 W/m2 BKN
06:11 37.1 °F 34.7 °F 29.96 in Calm     91% 0.00 in 0.0 W/m2 BKN
06:16 36.9 °F 34.5 °F 29.96 in Calm     91% 0.00 in 0.0 W/m2 BKN
06:21 36.8 °F 34.4 °F 29.96 in Calm     91% 0.00 in 0.0 W/m2 BKN
06:26 36.6 °F 34.2 °F 29.96 in Calm     91% 0.00 in 0.0 W/m2 BKN
06:31 36.4 °F 34.0 °F 29.97 in Calm     91% 0.00 in 0.0 W/m2 BKN
06:36 36.2 °F 33.8 °F 29.97 in Calm     91% 0.00 in 0.0 W/m2 BKN
06:41 36.1 °F 33.7 °F 29.97 in Calm     91% 0.00 in 0.0 W/m2 BKN
06:46 35.9 °F 33.5 °F 29.97 in Calm     91% 0.00 in 0.0 W/m2 BKN
06:51 35.7 °F 33.3 °F 29.98 in Calm     91% 0.00 in 0.0 W/m2 BKN
06:56 35.5 °F 33.1 °F 29.98 in Calm     91% 0.00 in 0.0 W/m2 BKN
07:01 35.3 °F 32.9 °F 29.98 in Calm     91% 0.00 in 0.0 W/m2 CLR
07:06 35.1 °F 33.0 °F 29.98 in Calm     92% 0.00 in 0.0 W/m2 CLR
07:11 35.0 °F 32.9 °F 29.98 in Calm     92% 0.00 in 6.0 W/m2 CLR
07:16 34.9 °F 32.8 °F 29.99 in Calm     92% 0.00 in 8.4 W/m2 CLR
07:21 34.7 °F 32.6 °F 29.99 in Calm     92% 0.00 in 10.8 W/m2 CLR
07:26 34.5 °F 32.4 °F 29.99 in Calm     92% 0.00 in 13.2 W/m2 CLR
07:31 34.4 °F 32.3 °F 29.99 in Calm     92% 0.00 in 14.4 W/m2 CLR
07:36 34.3 °F 32.5 °F 29.99 in Calm   1.1 mph 93% 0.00 in 16.8 W/m2 CLR
07:41 34.3 °F 32.5 °F 29.99 in West 1.1 mph 4.6 mph 93% 0.00 in 16.8 W/m2 CLR
07:46 34.3 °F 32.5 °F 29.99 in NW 2.3 mph 3.5 mph 93% 0.00 in 19.2 W/m2 CLR
07:52 34.6 °F 33.1 °F 30.00 in West 1.3 mph 3.5 mph 94% 0.00 in 22.8 W/m2 CLR
07:57 34.8 °F 33.2 °F 30.00 in West 1.6 mph 2.3 mph 94% 0.00 in 25.2 W/m2 CLR
08:02 35.0 °F 33.4 °F 30.00 in WNW 1.2 mph 3.5 mph 94% 0.00 in 27.6 W/m2 CLR
08:08 35.6 °F 34.0 °F 30.00 in SSW 2.4 mph 8.1 mph 94% 0.00 in 31.2 W/m2 CLR
08:13 36.7 °F 34.9 °F 30.00 in WSW 2.6 mph 4.0 mph 93% 0.00 in 31.2 W/m2 CLR
08:18 37.6 °F 35.2 °F 30.00 in SSW 0.9 mph 5.8 mph 91% 0.00 in 33.6 W/m2 CLR
08:23 38.5 °F 35.3 °F 30.00 in West 1.6 mph 12.7 mph 88% 0.00 in 30.0 W/m2 CLR
08:28 39.5 °F 35.4 °F 30.00 in WSW 2.3 mph 8.1 mph 85% 0.00 in 30.0 W/m2 CLR
08:33 40.0 °F 35.6 °F 30.00 in West 4.6 mph 10.4 mph 84% 0.00 in 31.2 W/m2 CLR
08:39 40.3 °F 35.5 °F 30.01 in WNW 4.0 mph 6.9 mph 83% 0.00 in 33.6 W/m2 CLR
08:45 40.5 °F 35.7 °F 30.01 in WSW 4.8 mph 8.0 mph 83% 0.00 in 36.0 W/m2 CLR
08:50 40.8 °F 36.0 °F 30.01 in West 3.9 mph 11.5 mph 83% 0.00 in 36.0 W/m2 CLR
08:56 41.4 °F 36.3 °F 30.01 in WNW 5.9 mph 9.2 mph 82% 0.00 in 39.6 W/m2 CLR
09:01 41.8 °F 37.0 °F 30.01 in WSW 2.4 mph 6.9 mph 83% 0.00 in 42.0 W/m2 CLR
Mint Hill, North Carolina, USA
Compliments of Weather Underground